sensor_id;sensor_type;location;lat;lon;timestamp;pressure;altitude;pressure_sealevel;temperature;humidity
64298;BME280;50639;53.270;7.956;2023-05-03T00:00:13;102930.75;;;6.65;66.02
64298;BME280;50639;53.270;7.956;2023-05-03T00:02:40;102938.84;;;6.63;65.48
64298;BME280;50639;53.270;7.956;2023-05-03T00:05:09;102926.41;;;6.64;64.89
64298;BME280;50639;53.270;7.956;2023-05-03T00:07:36;102935.50;;;6.72;64.07
64298;BME280;50639;53.270;7.956;2023-05-03T00:10:03;102929.13;;;6.75;64.64
64298;BME280;50639;53.270;7.956;2023-05-03T00:12:29;102934.81;;;6.82;64.21
64298;BME280;50639;53.270;7.956;2023-05-03T00:17:36;102931.22;;;6.83;64.54
64298;BME280;50639;53.270;7.956;2023-05-03T00:20:03;102934.34;;;6.88;65.16
64298;BME280;50639;53.270;7.956;2023-05-03T00:22:29;102937.97;;;6.87;65.63
64298;BME280;50639;53.270;7.956;2023-05-03T00:24:54;102935.44;;;6.61;64.25
64298;BME280;50639;53.270;7.956;2023-05-03T00:27:21;102930.69;;;6.77;63.88
64298;BME280;50639;53.270;7.956;2023-05-03T00:29:49;102931.09;;;6.84;62.70
64298;BME280;50639;53.270;7.956;2023-05-03T00:32:17;102939.47;;;6.91;64.23
64298;BME280;50639;53.270;7.956;2023-05-03T00:34:42;102934.13;;;6.91;63.49
64298;BME280;50639;53.270;7.956;2023-05-03T00:37:08;102940.50;;;6.77;62.93
64298;BME280;50639;53.270;7.956;2023-05-03T00:39:34;102943.47;;;6.72;62.84
64298;BME280;50639;53.270;7.956;2023-05-03T00:42:03;102941.94;;;6.81;62.56
64298;BME280;50639;53.270;7.956;2023-05-03T00:44:29;102947.44;;;6.91;63.19
64298;BME280;50639;53.270;7.956;2023-05-03T00:46:55;102945.72;;;6.90;62.57
64298;BME280;50639;53.270;7.956;2023-05-03T00:49:23;102951.03;;;6.90;62.48
64298;BME280;50639;53.270;7.956;2023-05-03T00:51:49;102953.47;;;6.93;62.86
64298;BME280;50639;53.270;7.956;2023-05-03T00:54:15;102951.16;;;6.88;63.23
64298;BME280;50639;53.270;7.956;2023-05-03T00:56:41;102941.25;;;6.90;63.59
64298;BME280;50639;53.270;7.956;2023-05-03T00:59:07;102940.94;;;6.95;63.53
64298;BME280;50639;53.270;7.956;2023-05-03T01:01:32;102950.13;;;6.78;63.17
64298;BME280;50639;53.270;7.956;2023-05-03T01:04:02;102949.25;;;6.66;64.13
64298;BME280;50639;53.270;7.956;2023-05-03T01:09:11;102944.16;;;6.63;63.69
64298;BME280;50639;53.270;7.956;2023-05-03T01:11:47;102942.13;;;6.67;64.47
64298;BME280;50639;53.270;7.956;2023-05-03T01:17:04;102943.81;;;6.68;65.17
64298;BME280;50639;53.270;7.956;2023-05-03T01:19:43;102949.25;;;6.66;64.65
64298;BME280;50639;53.270;7.956;2023-05-03T01:24:45;102946.78;;;6.87;64.58
64298;BME280;50639;53.270;7.956;2023-05-03T01:27:11;102948.84;;;6.84;64.18
64298;BME280;50639;53.270;7.956;2023-05-03T01:29:37;102949.00;;;6.69;65.64
64298;BME280;50639;53.270;7.956;2023-05-03T01:32:06;102955.34;;;6.79;65.52
64298;BME280;50639;53.270;7.956;2023-05-03T01:37:36;102952.09;;;6.87;64.81
64298;BME280;50639;53.270;7.956;2023-05-03T01:40:03;102956.13;;;6.93;65.63
64298;BME280;50639;53.270;7.956;2023-05-03T01:42:34;102957.41;;;6.87;65.45
64298;BME280;50639;53.270;7.956;2023-05-03T01:45:01;102948.09;;;6.82;65.12
64298;BME280;50639;53.270;7.956;2023-05-03T01:47:28;102954.94;;;6.97;64.72
64298;BME280;50639;53.270;7.956;2023-05-03T01:49:53;102952.78;;;7.02;64.11
64298;BME280;50639;53.270;7.956;2023-05-03T01:52:19;102951.94;;;7.01;64.42
64298;BME280;50639;53.270;7.956;2023-05-03T01:54:45;102958.97;;;7.02;65.20
64298;BME280;50639;53.270;7.956;2023-05-03T01:57:11;102957.84;;;7.05;64.51
64298;BME280;50639;53.270;7.956;2023-05-03T01:59:36;102962.00;;;7.09;64.58
64298;BME280;50639;53.270;7.956;2023-05-03T02:02:01;102965.78;;;7.17;64.89
64298;BME280;50639;53.270;7.956;2023-05-03T02:04:27;102959.72;;;7.15;64.90
64298;BME280;50639;53.270;7.956;2023-05-03T02:06:53;102957.53;;;7.09;65.14
64298;BME280;50639;53.270;7.956;2023-05-03T02:09:19;102968.66;;;7.14;64.40
64298;BME280;50639;53.270;7.956;2023-05-03T02:11:45;102962.88;;;7.21;65.05
64298;BME280;50639;53.270;7.956;2023-05-03T02:14:11;102965.19;;;7.25;64.42
64298;BME280;50639;53.270;7.956;2023-05-03T02:16:36;102974.28;;;7.34;65.50
64298;BME280;50639;53.270;7.956;2023-05-03T02:19:02;102963.75;;;7.32;64.67
64298;BME280;50639;53.270;7.956;2023-05-03T02:21:27;102976.09;;;7.33;64.28
64298;BME280;50639;53.270;7.956;2023-05-03T02:23:53;102970.03;;;7.31;64.76
64298;BME280;50639;53.270;7.956;2023-05-03T02:26:20;102965.66;;;7.30;65.04
64298;BME280;50639;53.270;7.956;2023-05-03T02:28:45;102968.53;;;7.16;65.61
64298;BME280;50639;53.270;7.956;2023-05-03T02:31:11;102970.13;;;7.18;65.27
64298;BME280;50639;53.270;7.956;2023-05-03T02:33:40;102963.59;;;7.23;65.06
64298;BME280;50639;53.270;7.956;2023-05-03T02:36:06;102966.66;;;7.29;65.57
64298;BME280;50639;53.270;7.956;2023-05-03T02:38:31;102966.53;;;7.31;65.01
64298;BME280;50639;53.270;7.956;2023-05-03T02:40:57;102967.94;;;7.24;65.73
64298;BME280;50639;53.270;7.956;2023-05-03T02:43:24;102968.47;;;7.29;65.50
64298;BME280;50639;53.270;7.956;2023-05-03T02:45:50;102963.84;;;7.31;66.13
64298;BME280;50639;53.270;7.956;2023-05-03T02:48:16;102964.97;;;7.28;67.26
64298;BME280;50639;53.270;7.956;2023-05-03T02:50:41;102959.97;;;7.24;67.44
64298;BME280;50639;53.270;7.956;2023-05-03T02:53:07;102959.03;;;7.25;67.13
64298;BME280;50639;53.270;7.956;2023-05-03T02:55:33;102952.38;;;7.19;67.28
64298;BME280;50639;53.270;7.956;2023-05-03T02:57:59;102950.44;;;7.21;66.73
64298;BME280;50639;53.270;7.956;2023-05-03T03:00:25;102948.84;;;7.18;67.64
64298;BME280;50639;53.270;7.956;2023-05-03T03:02:50;102959.72;;;7.15;68.54
64298;BME280;50639;53.270;7.956;2023-05-03T03:05:16;102956.47;;;7.12;69.30
64298;BME280;50639;53.270;7.956;2023-05-03T03:07:46;102958.38;;;7.10;68.25
64298;BME280;50639;53.270;7.956;2023-05-03T03:10:12;102955.44;;;7.02;69.43
64298;BME280;50639;53.270;7.956;2023-05-03T03:12:38;102951.94;;;7.01;68.93
64298;BME280;50639;53.270;7.956;2023-05-03T03:15:08;102963.41;;;7.02;69.35
64298;BME280;50639;53.270;7.956;2023-05-03T03:17:34;102957.47;;;6.98;69.22
64298;BME280;50639;53.270;7.956;2023-05-03T03:20:06;102961.34;;;6.94;68.68
64298;BME280;50639;53.270;7.956;2023-05-03T03:22:38;102956.63;;;6.98;68.85
64298;BME280;50639;53.270;7.956;2023-05-03T03:25:04;102944.94;;;7.00;69.03
64298;BME280;50639;53.270;7.956;2023-05-03T03:27:32;102946.38;;;7.04;68.71
64298;BME280;50639;53.270;7.956;2023-05-03T03:29:58;102945.03;;;6.99;69.07
64298;BME280;50639;53.270;7.956;2023-05-03T03:32:24;102940.19;;;6.93;69.60
64298;BME280;50639;53.270;7.956;2023-05-03T03:34:50;102942.75;;;6.94;69.19
64298;BME280;50639;53.270;7.956;2023-05-03T03:37:16;102940.19;;;6.93;69.82
64298;BME280;50639;53.270;7.956;2023-05-03T03:39:42;102942.22;;;6.89;69.40
64298;BME280;50639;53.270;7.956;2023-05-03T03:42:09;102951.81;;;6.79;69.98
64298;BME280;50639;53.270;7.956;2023-05-03T03:44:36;102952.19;;;6.74;69.87
64298;BME280;50639;53.270;7.956;2023-05-03T03:47:01;102948.91;;;6.71;70.05
64298;BME280;50639;53.270;7.956;2023-05-03T03:49:27;102945.63;;;6.67;69.56
64298;BME280;50639;53.270;7.956;2023-05-03T03:51:53;102944.38;;;6.60;70.26
64298;BME280;50639;53.270;7.956;2023-05-03T03:54:18;102942.06;;;6.56;70.58
64298;BME280;50639;53.270;7.956;2023-05-03T03:56:47;102936.78;;;6.43;71.93
64298;BME280;50639;53.270;7.956;2023-05-03T03:59:13;102927.94;;;6.31;72.07
64298;BME280;50639;53.270;7.956;2023-05-03T04:01:39;102936.09;;;6.28;71.53
64298;BME280;50639;53.270;7.956;2023-05-03T04:04:05;102941.63;;;6.25;71.23
64298;BME280;50639;53.270;7.956;2023-05-03T04:06:32;102939.09;;;6.24;71.92
64298;BME280;50639;53.270;7.956;2023-05-03T04:08:58;102942.59;;;6.24;71.55
64298;BME280;50639;53.270;7.956;2023-05-03T04:11:24;102944.41;;;6.24;71.71
64298;BME280;50639;53.270;7.956;2023-05-03T04:13:55;102944.06;;;6.16;72.06
64298;BME280;50639;53.270;7.956;2023-05-03T04:16:21;102951.94;;;6.17;71.37
64298;BME280;50639;53.270;7.956;2023-05-03T04:18:47;102944.81;;;6.18;71.40
64298;BME280;50639;53.270;7.956;2023-05-03T04:21:13;102949.94;;;6.08;72.07
64298;BME280;50639;53.270;7.956;2023-05-03T04:23:39;102943.47;;;5.99;72.42
64298;BME280;50639;53.270;7.956;2023-05-03T04:26:07;102947.22;;;5.97;72.46
64298;BME280;50639;53.270;7.956;2023-05-03T04:28:34;102952.38;;;5.98;71.55
64298;BME280;50639;53.270;7.956;2023-05-03T04:31:00;102942.53;;;6.00;72.37
64298;BME280;50639;53.270;7.956;2023-05-03T04:33:26;102956.03;;;5.97;73.05
64298;BME280;50639;53.270;7.956;2023-05-03T04:35:57;102951.78;;;5.95;72.65
64298;BME280;50639;53.270;7.956;2023-05-03T04:38:24;102955.69;;;5.89;72.99
64298;BME280;50639;53.270;7.956;2023-05-03T04:40:50;102963.53;;;5.91;73.17
64298;BME280;50639;53.270;7.956;2023-05-03T04:43:16;102959.38;;;5.99;72.77
64298;BME280;50639;53.270;7.956;2023-05-03T04:45:44;102963.53;;;6.03;73.72
64298;BME280;50639;53.270;7.956;2023-05-03T04:48:14;102966.41;;;6.13;72.77
64298;BME280;50639;53.270;7.956;2023-05-03T04:50:42;102970.41;;;6.19;73.95
64298;BME280;50639;53.270;7.956;2023-05-03T04:53:09;102973.34;;;6.27;73.24
64298;BME280;50639;53.270;7.956;2023-05-03T04:55:38;102977.16;;;6.35;72.82
64298;BME280;50639;53.270;7.956;2023-05-03T04:58:04;102984.69;;;6.41;72.93
64298;BME280;50639;53.270;7.956;2023-05-03T05:00:31;102983.06;;;6.52;72.56
64298;BME280;50639;53.270;7.956;2023-05-03T05:03:02;102986.97;;;6.59;72.21
64298;BME280;50639;53.270;7.956;2023-05-03T05:05:29;102991.94;;;6.63;72.66
64298;BME280;50639;53.270;7.956;2023-05-03T05:07:57;102987.03;;;6.70;72.42
64298;BME280;50639;53.270;7.956;2023-05-03T05:10:24;102984.78;;;6.76;72.22
64298;BME280;50639;53.270;7.956;2023-05-03T05:12:51;102991.63;;;6.92;71.17
64298;BME280;50639;53.270;7.956;2023-05-03T05:15:17;103004.91;;;7.15;74.53
64298;BME280;50639;53.270;7.956;2023-05-03T05:17:43;102997.34;;;7.33;70.39
64298;BME280;50639;53.270;7.956;2023-05-03T05:20:11;102999.78;;;7.36;68.27
64298;BME280;50639;53.270;7.956;2023-05-03T05:22:44;102988.34;;;7.47;67.79
64298;BME280;50639;53.270;7.956;2023-05-03T05:25:10;103003.19;;;7.38;66.11
64298;BME280;50639;53.270;7.956;2023-05-03T05:27:35;103004.66;;;7.53;66.86
64298;BME280;50639;53.270;7.956;2023-05-03T05:30:03;103009.88;;;7.66;67.17
64298;BME280;50639;53.270;7.956;2023-05-03T05:32:30;103016.63;;;7.59;64.82
64298;BME280;50639;53.270;7.956;2023-05-03T05:34:56;103022.84;;;7.71;64.60
64298;BME280;50639;53.270;7.956;2023-05-03T05:37:25;103017.88;;;7.77;64.55
64298;BME280;50639;53.270;7.956;2023-05-03T05:39:53;103017.28;;;7.85;62.74
64298;BME280;50639;53.270;7.956;2023-05-03T05:42:21;103017.94;;;8.00;64.00
64298;BME280;50639;53.270;7.956;2023-05-03T05:44:47;103020.22;;;8.04;62.90
64298;BME280;50639;53.270;7.956;2023-05-03T05:47:13;103023.13;;;8.23;63.41
64298;BME280;50639;53.270;7.956;2023-05-03T05:49:41;103030.78;;;8.17;62.48
64298;BME280;50639;53.270;7.956;2023-05-03T05:52:06;103027.00;;;8.30;62.28
64298;BME280;50639;53.270;7.956;2023-05-03T05:54:32;103022.44;;;8.33;61.24
64298;BME280;50639;53.270;7.956;2023-05-03T05:56:58;103026.28;;;8.28;61.86
64298;BME280;50639;53.270;7.956;2023-05-03T05:59:26;103024.25;;;8.32;61.48
64298;BME280;50639;53.270;7.956;2023-05-03T06:01:52;103030.66;;;8.52;62.16
64298;BME280;50639;53.270;7.956;2023-05-03T06:04:19;103022.06;;;8.59;60.94
64298;BME280;50639;53.270;7.956;2023-05-03T06:06:44;103023.28;;;8.44;58.86
64298;BME280;50639;53.270;7.956;2023-05-03T06:09:10;103026.75;;;8.67;61.13
64298;BME280;50639;53.270;7.956;2023-05-03T06:11:35;103025.41;;;8.84;59.70
64298;BME280;50639;53.270;7.956;2023-05-03T06:14:03;103029.84;;;8.94;60.21
64298;BME280;50639;53.270;7.956;2023-05-03T06:16:29;103027.56;;;8.90;58.09
64298;BME280;50639;53.270;7.956;2023-05-03T06:18:58;103026.97;;;8.86;58.82
64298;BME280;50639;53.270;7.956;2023-05-03T06:21:24;103039.41;;;8.43;57.52
64298;BME280;50639;53.270;7.956;2023-05-03T06:23:51;103037.69;;;8.53;59.86
64298;BME280;50639;53.270;7.956;2023-05-03T06:26:16;103044.22;;;8.60;57.63
64298;BME280;50639;53.270;7.956;2023-05-03T06:28:43;103037.50;;;8.88;56.24
64298;BME280;50639;53.270;7.956;2023-05-03T06:31:11;103039.16;;;9.00;55.28
64298;BME280;50639;53.270;7.956;2023-05-03T06:33:37;103039.25;;;9.10;55.86
64298;BME280;50639;53.270;7.956;2023-05-03T06:36:03;103040.84;;;9.01;55.98
64298;BME280;50639;53.270;7.956;2023-05-03T06:38:28;103042.56;;;8.91;53.91
64298;BME280;50639;53.270;7.956;2023-05-03T06:40:54;103049.16;;;9.19;53.92
64298;BME280;50639;53.270;7.956;2023-05-03T06:43:19;103043.94;;;9.17;51.62
64298;BME280;50639;53.270;7.956;2023-05-03T06:45:52;103040.91;;;9.22;52.43
64298;BME280;50639;53.270;7.956;2023-05-03T06:48:18;103045.66;;;9.07;53.48
64298;BME280;50639;53.270;7.956;2023-05-03T06:50:43;103043.94;;;8.85;52.49
64298;BME280;50639;53.270;7.956;2023-05-03T06:53:09;103048.53;;;8.72;53.82
64298;BME280;50639;53.270;7.956;2023-05-03T06:55:34;103049.56;;;9.03;51.68
64298;BME280;50639;53.270;7.956;2023-05-03T06:58:00;103045.56;;;8.97;50.32
64298;BME280;50639;53.270;7.956;2023-05-03T07:00:25;103056.63;;;9.25;50.17
64298;BME280;50639;53.270;7.956;2023-05-03T07:02:51;103049.94;;;8.98;48.70
64298;BME280;50639;53.270;7.956;2023-05-03T07:05:16;103047.59;;;9.16;48.34
64298;BME280;50639;53.270;7.956;2023-05-03T07:07:42;103046.34;;;9.31;46.85
64298;BME280;50639;53.270;7.956;2023-05-03T07:10:07;103040.34;;;9.60;48.71
64298;BME280;50639;53.270;7.956;2023-05-03T07:12:33;103042.88;;;10.03;49.73
64298;BME280;50639;53.270;7.956;2023-05-03T07:14:58;103037.16;;;10.28;48.07
64298;BME280;50639;53.270;7.956;2023-05-03T07:17:24;103037.03;;;10.09;46.31
64298;BME280;50639;53.270;7.956;2023-05-03T07:19:50;103041.47;;;9.99;48.42
64298;BME280;50639;53.270;7.956;2023-05-03T07:22:16;103047.69;;;10.09;47.86
64298;BME280;50639;53.270;7.956;2023-05-03T07:24:42;103051.03;;;10.01;47.74
64298;BME280;50639;53.270;7.956;2023-05-03T07:27:08;103050.63;;;10.27;45.27
64298;BME280;50639;53.270;7.956;2023-05-03T07:29:33;103039.16;;;10.15;45.62
64298;BME280;50639;53.270;7.956;2023-05-03T07:31:59;103040.44;;;9.69;46.17
64298;BME280;50639;53.270;7.956;2023-05-03T07:34:25;103047.00;;;9.86;48.08
64298;BME280;50639;53.270;7.956;2023-05-03T07:36:51;103045.38;;;9.53;47.47
64298;BME280;50639;53.270;7.956;2023-05-03T07:39:17;103046.44;;;9.82;46.42
64298;BME280;50639;53.270;7.956;2023-05-03T07:41:43;103053.78;;;9.90;46.54
64298;BME280;50639;53.270;7.956;2023-05-03T07:44:08;103051.03;;;9.80;47.16
64298;BME280;50639;53.270;7.956;2023-05-03T07:46:34;103053.97;;;9.77;47.07
64298;BME280;50639;53.270;7.956;2023-05-03T07:49:00;103050.50;;;9.87;47.07
64298;BME280;50639;53.270;7.956;2023-05-03T07:51:26;103046.13;;;9.76;47.82
64298;BME280;50639;53.270;7.956;2023-05-03T07:53:56;103055.91;;;9.96;48.26
64298;BME280;50639;53.270;7.956;2023-05-03T07:56:22;103057.44;;;10.40;47.01
64298;BME280;50639;53.270;7.956;2023-05-03T07:58:47;103052.22;;;10.79;46.71
64298;BME280;50639;53.270;7.956;2023-05-03T08:01:13;103055.22;;;11.05;45.86
64298;BME280;50639;53.270;7.956;2023-05-03T08:03:38;103049.44;;;11.09;45.12
64298;BME280;50639;53.270;7.956;2023-05-03T08:06:04;103046.06;;;10.88;44.42
64298;BME280;50639;53.270;7.956;2023-05-03T08:08:30;103044.78;;;11.02;44.96
64298;BME280;50639;53.270;7.956;2023-05-03T08:10:56;103053.47;;;10.35;45.49
64298;BME280;50639;53.270;7.956;2023-05-03T08:13:21;103046.03;;;10.78;46.31
64298;BME280;50639;53.270;7.956;2023-05-03T08:15:48;103050.16;;;11.11;45.14
64298;BME280;50639;53.270;7.956;2023-05-03T08:18:13;103050.88;;;11.23;44.59
64298;BME280;50639;53.270;7.956;2023-05-03T08:20:39;103043.97;;;11.20;46.49
64298;BME280;50639;53.270;7.956;2023-05-03T08:23:04;103059.59;;;11.15;44.85
64298;BME280;50639;53.270;7.956;2023-05-03T08:25:30;103050.56;;;11.26;45.10
64298;BME280;50639;53.270;7.956;2023-05-03T08:27:55;103050.03;;;11.42;46.45
64298;BME280;50639;53.270;7.956;2023-05-03T08:30:21;103048.91;;;11.44;45.21
64298;BME280;50639;53.270;7.956;2023-05-03T08:32:47;103048.19;;;11.13;45.87
64298;BME280;50639;53.270;7.956;2023-05-03T08:35:13;103050.59;;;11.16;44.73
64298;BME280;50639;53.270;7.956;2023-05-03T08:37:42;103049.34;;;11.40;45.30
64298;BME280;50639;53.270;7.956;2023-05-03T08:40:09;103052.97;;;10.50;45.88
64298;BME280;50639;53.270;7.956;2023-05-03T08:42:42;103055.09;;;10.56;47.03
64298;BME280;50639;53.270;7.956;2023-05-03T08:45:11;103057.94;;;10.25;45.95
64298;BME280;50639;53.270;7.956;2023-05-03T08:47:38;103059.66;;;10.35;46.68
64298;BME280;50639;53.270;7.956;2023-05-03T08:50:07;103061.16;;;10.59;46.33
64298;BME280;50639;53.270;7.956;2023-05-03T08:52:33;103063.81;;;10.59;45.58
64298;BME280;50639;53.270;7.956;2023-05-03T08:54:59;103059.78;;;10.64;45.88
64298;BME280;50639;53.270;7.956;2023-05-03T08:57:25;103061.97;;;10.49;45.36
64298;BME280;50639;53.270;7.956;2023-05-03T08:59:52;103064.88;;;10.37;46.72
64298;BME280;50639;53.270;7.956;2023-05-03T09:02:21;103066.66;;;10.67;46.16
64298;BME280;50639;53.270;7.956;2023-05-03T09:04:47;103069.28;;;10.97;46.33
64298;BME280;50639;53.270;7.956;2023-05-03T09:07:12;103061.84;;;11.29;45.84
64298;BME280;50639;53.270;7.956;2023-05-03T09:09:40;103064.81;;;11.46;44.76
64298;BME280;50639;53.270;7.956;2023-05-03T09:12:07;103060.16;;;11.57;44.67
64298;BME280;50639;53.270;7.956;2023-05-03T09:14:43;103055.69;;;11.77;45.53
64298;BME280;50639;53.270;7.956;2023-05-03T09:17:16;103051.69;;;11.72;45.35
64298;BME280;50639;53.270;7.956;2023-05-03T09:19:55;103046.47;;;11.89;44.27
64298;BME280;50639;53.270;7.956;2023-05-03T09:22:24;103045.50;;;11.04;46.17
64298;BME280;50639;53.270;7.956;2023-05-03T09:24:53;103049.25;;;10.72;46.38
64298;BME280;50639;53.270;7.956;2023-05-03T09:27:20;103056.69;;;10.69;47.12
64298;BME280;50639;53.270;7.956;2023-05-03T09:29:46;103050.56;;;10.97;45.88
64298;BME280;50639;53.270;7.956;2023-05-03T09:32:11;103045.38;;;11.15;46.07
64298;BME280;50639;53.270;7.956;2023-05-03T09:34:37;103050.75;;;11.34;45.87
64298;BME280;50639;53.270;7.956;2023-05-03T09:37:02;103047.19;;;11.53;44.80
64298;BME280;50639;53.270;7.956;2023-05-03T09:39:28;103049.28;;;11.97;43.88
64298;BME280;50639;53.270;7.956;2023-05-03T09:41:53;103043.44;;;12.21;43.30
64298;BME280;50639;53.270;7.956;2023-05-03T09:44:19;103041.50;;;12.41;43.33
64298;BME280;50639;53.270;7.956;2023-05-03T09:47:04;103039.16;;;12.28;42.52
64298;BME280;50639;53.270;7.956;2023-05-03T09:49:33;103046.28;;;12.47;42.87
64298;BME280;50639;53.270;7.956;2023-05-03T09:52:01;103053.50;;;12.00;43.93
64298;BME280;50639;53.270;7.956;2023-05-03T09:54:27;103042.06;;;12.44;43.30
64298;BME280;50639;53.270;7.956;2023-05-03T09:56:55;103041.19;;;12.17;43.28
64298;BME280;50639;53.270;7.956;2023-05-03T09:59:21;103045.50;;;12.64;43.95
64298;BME280;50639;53.270;7.956;2023-05-03T10:01:49;103045.50;;;12.64;43.24
64298;BME280;50639;53.270;7.956;2023-05-03T10:04:17;103042.09;;;12.90;43.28
64298;BME280;50639;53.270;7.956;2023-05-03T10:06:47;103034.91;;;13.08;43.06
64298;BME280;50639;53.270;7.956;2023-05-03T10:12:04;103035.94;;;13.42;43.12
64298;BME280;50639;53.270;7.956;2023-05-03T10:14:34;103035.94;;;13.42;42.19
64298;BME280;50639;53.270;7.956;2023-05-03T10:17:03;103041.66;;;13.47;42.27
64298;BME280;50639;53.270;7.956;2023-05-03T10:19:40;103038.88;;;13.57;42.72
64298;BME280;50639;53.270;7.956;2023-05-03T10:22:10;103041.22;;;13.34;41.08
64298;BME280;50639;53.270;7.956;2023-05-03T10:24:37;103033.97;;;12.81;41.90
64298;BME280;50639;53.270;7.956;2023-05-03T10:27:22;103037.41;;;13.19;42.86
64298;BME280;50639;53.270;7.956;2023-05-03T10:29:50;103033.75;;;13.46;42.34
64298;BME280;50639;53.270;7.956;2023-05-03T10:32:30;103033.66;;;13.55;41.52
64298;BME280;50639;53.270;7.956;2023-05-03T10:34:59;103029.84;;;13.58;41.16
64298;BME280;50639;53.270;7.956;2023-05-03T10:37:26;103030.31;;;13.53;42.86
64298;BME280;50639;53.270;7.956;2023-05-03T10:39:52;103030.00;;;13.82;40.38
64298;BME280;50639;53.270;7.956;2023-05-03T10:42:21;103029.06;;;13.66;41.58
64298;BME280;50639;53.270;7.956;2023-05-03T10:44:53;103038.69;;;13.33;39.91
64298;BME280;50639;53.270;7.956;2023-05-03T10:47:23;103043.78;;;12.36;41.97
64298;BME280;50639;53.270;7.956;2023-05-03T10:57:37;103046.63;;;13.07;42.96
64298;BME280;50639;53.270;7.956;2023-05-03T11:00:10;103032.72;;;13.65;42.00
64298;BME280;50639;53.270;7.956;2023-05-03T11:02:41;103038.41;;;13.18;42.63
64298;BME280;50639;53.270;7.956;2023-05-03T11:05:11;103044.00;;;12.15;43.47
64298;BME280;50639;53.270;7.956;2023-05-03T11:07:38;103041.78;;;12.11;43.03
64298;BME280;50639;53.270;7.956;2023-05-03T11:10:17;103040.13;;;11.90;44.50
64298;BME280;50639;53.270;7.956;2023-05-03T11:12:43;103040.09;;;12.00;44.96
64298;BME280;50639;53.270;7.956;2023-05-03T11:15:09;103044.63;;;11.90;43.24
64298;BME280;50639;53.270;7.956;2023-05-03T11:17:39;103038.72;;;12.88;41.99
64298;BME280;50639;53.270;7.956;2023-05-03T11:20:05;103040.16;;;13.45;40.46
64298;BME280;50639;53.270;7.956;2023-05-03T11:22:34;103035.81;;;12.99;42.31
64298;BME280;50639;53.270;7.956;2023-05-03T11:25:00;103038.25;;;12.74;40.92
64298;BME280;50639;53.270;7.956;2023-05-03T11:27:25;103032.69;;;13.21;41.16
64298;BME280;50639;53.270;7.956;2023-05-03T11:29:52;103038.63;;;12.79;40.69
64298;BME280;50639;53.270;7.956;2023-05-03T11:32:28;103036.06;;;13.59;41.04
64298;BME280;50639;53.270;7.956;2023-05-03T11:34:55;103034.03;;;14.04;39.85
64298;BME280;50639;53.270;7.956;2023-05-03T11:37:21;103033.09;;;14.21;41.26
64298;BME280;50639;53.270;7.956;2023-05-03T11:39:46;103032.97;;;14.57;39.92
64298;BME280;50639;53.270;7.956;2023-05-03T11:42:12;103026.47;;;14.76;40.04
64298;BME280;50639;53.270;7.956;2023-05-03T11:44:37;103020.81;;;15.11;39.95
64298;BME280;50639;53.270;7.956;2023-05-03T11:47:03;103011.22;;;15.17;39.08
64298;BME280;50639;53.270;7.956;2023-05-03T11:49:29;103010.47;;;14.66;39.26
64298;BME280;50639;53.270;7.956;2023-05-03T11:51:54;103011.25;;;14.50;38.89
64298;BME280;50639;53.270;7.956;2023-05-03T11:54:21;103007.19;;;13.17;41.28
64298;BME280;50639;53.270;7.956;2023-05-03T11:56:47;103010.56;;;13.19;42.07
64298;BME280;50639;53.270;7.956;2023-05-03T11:59:12;103013.03;;;12.40;42.77
64298;BME280;50639;53.270;7.956;2023-05-03T12:01:38;103013.28;;;12.47;42.63
64298;BME280;50639;53.270;7.956;2023-05-03T12:04:03;103013.97;;;11.75;44.33
64298;BME280;50639;53.270;7.956;2023-05-03T12:06:30;103020.66;;;12.35;43.42
64298;BME280;50639;53.270;7.956;2023-05-03T12:08:57;103007.06;;;13.09;43.42
64298;BME280;50639;53.270;7.956;2023-05-03T12:11:23;103007.50;;;13.57;41.92
64298;BME280;50639;53.270;7.956;2023-05-03T12:13:59;103009.31;;;12.68;42.04
64298;BME280;50639;53.270;7.956;2023-05-03T12:19:01;102998.19;;;13.44;40.59
64298;BME280;50639;53.270;7.956;2023-05-03T12:21:46;102995.06;;;14.08;40.02
64298;BME280;50639;53.270;7.956;2023-05-03T12:24:12;103000.72;;;14.31;39.22
64298;BME280;50639;53.270;7.956;2023-05-03T12:26:44;103000.22;;;14.36;39.92
64298;BME280;50639;53.270;7.956;2023-05-03T12:29:10;102997.34;;;13.08;41.72
64298;BME280;50639;53.270;7.956;2023-05-03T12:31:35;102995.50;;;13.44;41.70
64298;BME280;50639;53.270;7.956;2023-05-03T12:34:01;102996.88;;;14.00;41.71
64298;BME280;50639;53.270;7.956;2023-05-03T12:36:29;102999.00;;;14.22;42.28
64298;BME280;50639;53.270;7.956;2023-05-03T12:38:57;102991.25;;;13.59;44.10
64298;BME280;50639;53.270;7.956;2023-05-03T12:41:22;102992.25;;;12.87;42.41
64298;BME280;50639;53.270;7.956;2023-05-03T12:43:52;102981.09;;;12.47;43.65
64298;BME280;50639;53.270;7.956;2023-05-03T12:46:17;102989.56;;;12.69;44.33
64298;BME280;50639;53.270;7.956;2023-05-03T12:48:43;102987.50;;;12.36;44.59
64298;BME280;50639;53.270;7.956;2023-05-03T12:51:08;102989.47;;;13.24;44.13
64298;BME280;50639;53.270;7.956;2023-05-03T12:53:34;102981.84;;;13.02;42.45
64298;BME280;50639;53.270;7.956;2023-05-03T12:55:59;102978.03;;;13.66;43.85
64298;BME280;50639;53.270;7.956;2023-05-03T12:58:25;102970.72;;;14.52;41.73
64298;BME280;50639;53.270;7.956;2023-05-03T13:00:51;102984.13;;;13.76;40.60
64298;BME280;50639;53.270;7.956;2023-05-03T13:03:16;102978.72;;;14.36;42.18
64298;BME280;50639;53.270;7.956;2023-05-03T13:05:42;102962.75;;;14.84;41.29
64298;BME280;50639;53.270;7.956;2023-05-03T13:08:08;102961.69;;;14.69;41.62
64298;BME280;50639;53.270;7.956;2023-05-03T13:10:38;102966.25;;;14.26;40.24
64298;BME280;50639;53.270;7.956;2023-05-03T13:13:06;102959.84;;;14.19;42.26
64298;BME280;50639;53.270;7.956;2023-05-03T13:15:34;102954.47;;;14.69;40.05
64298;BME280;50639;53.270;7.956;2023-05-03T13:18:00;102957.63;;;14.49;40.76
64298;BME280;50639;53.270;7.956;2023-05-03T13:20:30;102948.91;;;14.63;40.42